createdAt,value
2024-03-13T00:00:24.184Z,2.20
2024-03-13T00:02:52.106Z,2.14
2024-03-13T00:05:22.474Z,2.07
2024-03-13T00:07:52.140Z,2.04
2024-03-13T00:10:20.212Z,2.04
2024-03-13T00:12:47.698Z,2.00
2024-03-13T00:15:15.300Z,1.93
2024-03-13T00:17:46.549Z,1.91
2024-03-13T00:20:14.311Z,1.86
2024-03-13T00:22:42.356Z,1.85
2024-03-13T00:25:13.965Z,1.86
2024-03-13T00:27:43.718Z,1.85
2024-03-13T00:30:11.644Z,1.86
2024-03-13T00:32:39.757Z,1.85
2024-03-13T00:35:08.815Z,1.98
2024-03-13T00:37:37.156Z,2.11
2024-03-13T00:40:05.425Z,2.00
2024-03-13T00:42:33.800Z,1.90
2024-03-13T00:45:01.503Z,1.89
2024-03-13T00:47:31.986Z,1.94
2024-03-13T00:49:59.531Z,2.12
2024-03-13T00:52:29.269Z,2.11
2024-03-13T00:54:56.834Z,2.00
2024-03-13T00:57:24.378Z,1.86
2024-03-13T00:59:52.149Z,1.81
2024-03-13T01:02:22.273Z,1.79
2024-03-13T01:04:50.344Z,1.76
2024-03-13T01:07:18.478Z,1.72
2024-03-13T01:09:46.192Z,1.72
2024-03-13T01:12:14.962Z,1.77
2024-03-13T01:14:42.845Z,1.74
2024-03-13T01:17:11.925Z,1.78
2024-03-13T01:19:40.045Z,1.80
2024-03-13T01:22:11.952Z,1.73
2024-03-13T01:24:40.099Z,1.60
2024-03-13T01:27:07.837Z,1.52
2024-03-13T01:29:37.542Z,1.55
2024-03-13T01:32:06.394Z,1.45
2024-03-13T01:34:34.433Z,1.57
2024-03-13T01:37:21.234Z,1.57
2024-03-13T01:39:49.533Z,1.58
2024-03-13T01:42:35.582Z,1.60
2024-03-13T01:45:31.200Z,1.52
2024-03-13T01:48:20.196Z,1.56
2024-03-13T01:51:07.138Z,1.41
2024-03-13T01:53:54.361Z,1.52
2024-03-13T01:56:28.781Z,1.57
2024-03-13T01:59:04.899Z,1.58
2024-03-13T02:01:53.145Z,1.58
2024-03-13T02:04:22.149Z,1.60
2024-03-13T02:06:51.092Z,1.56
2024-03-13T02:09:19.746Z,1.55
2024-03-13T02:11:47.400Z,1.54
2024-03-13T02:14:16.758Z,1.57
2024-03-13T02:16:50.601Z,1.57
2024-03-13T02:19:19.650Z,1.58
2024-03-13T02:21:49.036Z,1.56
2024-03-13T02:24:18.509Z,1.48
2024-03-13T02:26:47.102Z,1.43
2024-03-13T02:29:15.276Z,1.42
2024-03-13T02:31:43.308Z,1.40
2024-03-13T02:34:11.471Z,1.37
2024-03-13T02:36:39.141Z,1.40
2024-03-13T02:39:07.236Z,1.42
2024-03-13T02:41:35.326Z,1.43
2024-03-13T02:44:03.739Z,1.41
2024-03-13T02:46:31.617Z,1.38
2024-03-13T02:48:59.411Z,1.39
2024-03-13T02:51:27.082Z,1.41
2024-03-13T02:53:55.072Z,1.42
2024-03-13T02:56:23.137Z,1.44
2024-03-13T02:58:50.883Z,1.38
2024-03-13T03:01:18.633Z,1.50
2024-03-13T03:03:46.509Z,1.63
2024-03-13T03:06:17.502Z,1.72
2024-03-13T03:08:46.241Z,1.74
2024-03-13T03:11:14.218Z,1.60
2024-03-13T03:13:42.195Z,1.46
2024-03-13T03:16:10.741Z,1.41
2024-03-13T03:18:38.522Z,1.38
2024-03-13T03:21:09.009Z,1.42
2024-03-13T03:23:36.704Z,1.62
2024-03-13T03:26:04.583Z,1.75
2024-03-13T03:28:32.358Z,1.85
2024-03-13T03:31:03.234Z,1.82
2024-03-13T03:33:31.273Z,1.69
2024-03-13T03:35:58.979Z,1.59
2024-03-13T03:38:30.093Z,1.62
2024-03-13T03:40:57.739Z,1.60
2024-03-13T03:43:27.401Z,1.51
2024-03-13T03:45:55.979Z,1.45
2024-03-13T03:48:24.174Z,1.39
2024-03-13T03:50:51.938Z,1.41
2024-03-13T03:53:20.034Z,1.43
2024-03-13T03:55:47.703Z,1.46
2024-03-13T03:58:15.576Z,1.51
2024-03-13T04:00:43.763Z,1.57
2024-03-13T04:03:11.325Z,1.64
2024-03-13T04:05:41.804Z,1.71
2024-03-13T04:08:10.384Z,1.77
2024-03-13T04:10:40.705Z,1.84
2024-03-13T04:13:08.799Z,1.81
2024-03-13T04:15:36.471Z,1.82
2024-03-13T04:18:05.177Z,1.88
2024-03-13T04:20:33.075Z,1.96
2024-03-13T04:23:00.771Z,2.04
2024-03-13T04:25:28.741Z,2.12
2024-03-13T04:27:56.976Z,2.16
2024-03-13T04:30:25.393Z,2.21
2024-03-13T04:32:52.947Z,2.25
2024-03-13T04:35:21.938Z,2.33
2024-03-13T04:37:51.550Z,2.41
2024-03-13T04:40:21.556Z,2.55
2024-03-13T04:42:49.340Z,2.75
2024-03-13T04:45:17.459Z,2.90
2024-03-13T04:47:45.439Z,3.01
2024-03-13T04:50:13.416Z,3.14
2024-03-13T04:52:41.204Z,3.30
2024-03-13T04:55:09.004Z,3.36
2024-03-13T04:57:36.770Z,3.51
2024-03-13T05:00:05.846Z,3.64
2024-03-13T05:02:36.311Z,3.76
2024-03-13T05:05:05.601Z,3.89
2024-03-13T05:07:33.371Z,4.01
2024-03-13T05:10:01.142Z,4.12
2024-03-13T05:12:36.296Z,4.19
2024-03-13T05:15:08.429Z,4.34
2024-03-13T05:17:36.610Z,4.45
2024-03-13T05:20:13.841Z,4.53
2024-03-13T05:22:41.585Z,4.60
2024-03-13T05:25:16.073Z,4.67
2024-03-13T05:27:43.802Z,4.77
2024-03-13T05:30:11.833Z,4.80
2024-03-13T05:32:39.743Z,4.80
2024-03-13T05:35:08.099Z,4.91
2024-03-13T05:37:37.039Z,4.94
2024-03-13T05:40:14.113Z,5.03
2024-03-13T05:42:43.430Z,5.18
2024-03-13T05:45:11.489Z,5.36
2024-03-13T05:47:40.791Z,5.51
2024-03-13T05:50:10.048Z,5.53
2024-03-13T05:52:37.902Z,5.48
2024-03-13T05:55:06.086Z,5.38
2024-03-13T05:57:33.967Z,5.33
2024-03-13T06:00:05.434Z,5.39
2024-03-13T06:02:43.052Z,5.39
2024-03-13T06:05:11.522Z,5.50
2024-03-13T06:07:40.163Z,5.68
2024-03-13T06:10:11.898Z,5.95
2024-03-13T06:12:40.449Z,6.24
2024-03-13T06:15:08.849Z,6.48
2024-03-13T06:17:36.960Z,6.70
2024-03-13T06:20:05.180Z,6.78
2024-03-13T06:22:32.808Z,6.81
2024-03-13T06:25:08.086Z,7.00
2024-03-13T06:27:37.345Z,7.01
2024-03-13T06:30:06.857Z,7.13
2024-03-13T06:32:34.575Z,7.32
2024-03-13T06:35:06.992Z,7.45
2024-03-13T06:37:35.168Z,7.55
2024-03-13T06:40:02.662Z,7.60
2024-03-13T06:42:31.273Z,7.58
2024-03-13T06:44:59.048Z,7.61
2024-03-13T06:47:27.089Z,7.71
2024-03-13T06:49:55.215Z,7.77
2024-03-13T06:52:23.023Z,7.97
2024-03-13T06:54:50.563Z,8.10
2024-03-13T06:57:18.247Z,8.04
2024-03-13T06:59:46.627Z,8.05
2024-03-13T07:02:18.931Z,8.16
2024-03-13T07:04:46.529Z,8.10
2024-03-13T07:07:14.153Z,8.11
2024-03-13T07:09:43.661Z,8.24
2024-03-13T07:12:13.023Z,8.41
2024-03-13T07:14:40.901Z,8.75
2024-03-13T07:17:08.759Z,9.00
2024-03-13T07:19:37.103Z,9.13
2024-03-13T07:22:05.309Z,8.96
2024-03-13T07:24:33.542Z,8.89
2024-03-13T07:27:01.529Z,8.88
2024-03-13T07:29:29.307Z,9.16
2024-03-13T07:31:57.652Z,9.24
2024-03-13T07:34:25.634Z,9.27
2024-03-13T07:36:53.846Z,9.37
2024-03-13T07:39:22.640Z,9.34
2024-03-13T07:41:50.492Z,9.24
2024-03-13T07:44:18.286Z,9.18
2024-03-13T07:46:45.818Z,9.24
2024-03-13T07:49:14.980Z,9.38
2024-03-13T07:51:43.529Z,9.42
2024-03-13T07:54:11.529Z,9.34
2024-03-13T07:56:40.496Z,9.10
2024-03-13T07:59:08.155Z,9.18
2024-03-13T08:01:44.820Z,9.18
2024-03-13T08:04:13.121Z,9.29
2024-03-13T09:07:24.347Z,12.22
2024-03-13T09:09:52.175Z,12.26
2024-03-13T09:12:20.044Z,12.46
2024-03-13T09:14:47.767Z,12.85
2024-03-13T09:17:15.349Z,13.06
2024-03-13T09:19:43.122Z,13.25
2024-03-13T09:22:13.498Z,13.50
2024-03-13T09:24:43.769Z,13.73
2024-03-13T09:27:12.413Z,13.55
2024-03-13T09:29:40.243Z,13.67
2024-03-13T09:32:08.090Z,13.48
2024-03-13T09:34:39.876Z,13.55
2024-03-13T09:37:11.173Z,13.24
2024-03-13T09:39:38.983Z,13.44
2024-03-13T09:42:23.726Z,13.36
2024-03-13T09:44:52.554Z,13.39
2024-03-13T09:47:21.563Z,13.17
2024-03-13T09:49:49.697Z,13.35
2024-03-13T09:52:18.264Z,13.52
2024-03-13T09:54:47.270Z,13.56
2024-03-13T09:57:15.859Z,13.97
2024-03-13T09:59:43.649Z,14.44
2024-03-13T10:02:20.366Z,14.70
2024-03-13T10:04:50.584Z,14.80
2024-03-13T10:07:23.048Z,14.68
2024-03-13T10:09:51.135Z,14.91
2024-03-13T10:12:22.705Z,15.11
2024-03-13T10:14:52.388Z,14.70
2024-03-13T10:17:24.492Z,15.15
2024-03-13T10:19:57.006Z,14.93
2024-03-13T10:22:27.423Z,14.78
2024-03-13T10:24:58.866Z,14.94
2024-03-13T10:27:26.798Z,15.23
2024-03-13T10:29:55.378Z,15.36
2024-03-13T10:41:48.106Z,15.05
2024-03-13T10:44:15.999Z,15.06
2024-03-13T10:46:43.779Z,15.58
2024-03-13T10:49:17.927Z,15.58
2024-03-13T10:51:45.829Z,15.78
2024-03-13T10:54:13.974Z,15.69
2024-03-13T10:56:41.624Z,15.70
2024-03-13T10:59:11.228Z,16.12
2024-03-13T11:01:39.253Z,16.17
2024-03-13T11:04:07.159Z,16.23
2024-03-13T11:06:34.655Z,15.92
2024-03-13T11:09:05.564Z,16.05
2024-03-13T11:11:36.909Z,15.91
2024-03-13T11:14:05.070Z,15.44
2024-03-13T11:16:34.834Z,15.81
2024-03-13T11:19:05.196Z,16.19
2024-03-13T11:22:01.355Z,16.00
2024-03-13T11:24:34.025Z,15.94
2024-03-13T11:27:10.151Z,16.06
2024-03-13T11:29:45.655Z,16.21
2024-03-13T11:32:15.264Z,16.20
2024-03-13T11:34:43.922Z,16.48
2024-03-13T11:37:13.312Z,16.77
2024-03-13T11:39:43.916Z,16.81
2024-03-13T11:42:16.321Z,16.97
2024-03-13T11:44:47.496Z,17.00
2024-03-13T11:47:17.994Z,17.23
2024-03-13T11:49:45.793Z,17.42
2024-03-13T11:52:16.998Z,17.41
2024-03-13T11:54:45.750Z,16.76
2024-03-13T11:57:15.620Z,16.77
2024-03-13T11:59:45.683Z,16.97
2024-03-13T12:02:37.041Z,16.59
2024-03-13T12:05:09.581Z,16.38
2024-03-13T12:07:45.007Z,16.61
2024-03-13T12:10:19.059Z,16.89
2024-03-13T12:12:48.349Z,17.05
2024-03-13T12:15:20.628Z,17.10
2024-03-13T12:17:52.228Z,17.30
2024-03-13T12:20:23.813Z,17.67
2024-03-13T12:22:52.218Z,17.84
2024-03-13T12:25:21.402Z,17.60
2024-03-13T12:27:54.169Z,17.11
2024-03-13T12:30:23.049Z,17.14
2024-03-13T12:33:00.191Z,16.78
2024-03-13T12:35:28.051Z,16.12
2024-03-13T12:37:59.602Z,15.91
2024-03-13T12:40:28.025Z,16.03
2024-03-13T12:42:56.089Z,15.89
2024-03-13T12:45:23.875Z,15.94
2024-03-13T12:47:51.642Z,16.29
2024-03-13T12:50:20.151Z,16.71
2024-03-13T12:52:48.166Z,16.61
2024-03-13T12:55:21.708Z,16.71
2024-03-13T12:57:50.153Z,16.66
2024-03-13T13:00:22.067Z,16.66
2024-03-13T13:02:53.422Z,16.33
2024-03-13T13:05:22.601Z,16.38
2024-03-13T13:07:54.020Z,16.47
2024-03-13T13:10:31.770Z,16.45
2024-03-13T13:13:00.877Z,16.72
2024-03-13T13:15:28.825Z,16.89
2024-03-13T13:17:56.906Z,16.79
2024-03-13T13:20:25.038Z,16.38
2024-03-13T13:22:54.222Z,16.20
2024-03-13T13:25:28.220Z,16.31
2024-03-13T13:27:58.819Z,15.82
2024-03-13T13:30:26.583Z,15.94
2024-03-13T13:32:56.197Z,16.16
2024-03-13T13:35:25.300Z,16.13
2024-03-13T13:37:54.302Z,16.06
2024-03-13T13:40:22.401Z,15.84
2024-03-13T13:42:54.020Z,15.55
2024-03-13T13:45:24.867Z,15.38
2024-03-13T13:47:55.127Z,15.24
2024-03-13T13:50:23.596Z,15.10
2024-03-13T13:52:51.332Z,14.83
2024-03-13T13:55:19.511Z,14.82
2024-03-13T13:57:52.312Z,14.57
2024-03-13T14:00:24.807Z,14.23
2024-03-13T14:02:57.053Z,14.04
2024-03-13T14:05:28.714Z,13.92
2024-03-13T14:08:00.198Z,13.99
2024-03-13T14:10:27.959Z,13.95
2024-03-13T14:12:58.604Z,13.74
2024-03-13T14:15:26.475Z,13.49
2024-03-13T14:17:54.921Z,13.38
2024-03-13T14:20:23.468Z,13.30
2024-03-13T14:22:56.384Z,13.24
2024-03-13T14:25:28.225Z,13.05
2024-03-13T14:27:56.904Z,12.92
2024-03-13T14:30:25.071Z,12.60
2024-03-13T14:32:53.585Z,12.53
2024-03-13T14:35:22.813Z,12.50
2024-03-13T14:37:51.486Z,12.42
2024-03-13T14:40:22.508Z,12.32
2024-03-13T14:42:50.713Z,12.22
2024-03-13T14:45:20.122Z,12.16
2024-03-13T14:47:48.674Z,12.15
2024-03-13T14:50:21.445Z,12.04
2024-03-13T14:53:03.105Z,11.91
2024-03-13T14:55:34.658Z,11.83
2024-03-13T14:58:03.008Z,11.81
2024-03-13T15:00:31.060Z,11.80
2024-03-13T15:03:00.154Z,11.74
2024-03-13T15:05:32.073Z,11.59
2024-03-13T15:08:02.687Z,11.48
2024-03-13T15:11:45.514Z,11.46
2024-03-13T15:14:41.191Z,11.37
2024-03-13T15:17:11.676Z,11.30
2024-03-13T15:19:44.182Z,11.31
2024-03-13T15:22:38.831Z,11.31
2024-03-13T15:25:08.089Z,11.26
2024-03-13T15:27:36.172Z,11.22
2024-03-13T15:30:04.942Z,10.75
2024-03-13T15:32:33.450Z,11.08
2024-03-13T15:35:08.804Z,11.04
2024-03-13T15:37:36.824Z,10.95
2024-03-13T15:40:12.981Z,10.94
2024-03-13T15:42:41.729Z,10.81
2024-03-13T15:45:11.977Z,10.75
2024-03-13T15:47:42.143Z,10.70
2024-03-13T15:50:20.329Z,10.61
2024-03-13T15:52:56.156Z,10.61
2024-03-13T15:55:23.851Z,10.59
2024-03-13T15:57:51.472Z,10.60
2024-03-13T16:00:24.759Z,10.53
2024-03-13T16:02:58.878Z,10.34
2024-03-13T16:05:28.841Z,10.18
2024-03-13T16:08:02.413Z,10.15
2024-03-13T16:10:30.195Z,10.12
2024-03-13T16:12:58.567Z,10.04
2024-03-13T16:15:28.293Z,10.05
2024-03-13T16:17:59.769Z,10.02
2024-03-13T16:20:27.576Z,9.90
2024-03-13T16:22:55.594Z,9.88
2024-03-13T16:25:23.530Z,9.93
2024-03-13T16:27:52.367Z,9.83
2024-03-13T16:30:20.996Z,9.89
2024-03-13T16:32:50.016Z,10.01
2024-03-13T16:35:18.350Z,10.10
2024-03-13T16:37:47.323Z,10.15
2024-03-13T16:40:19.491Z,10.17
2024-03-13T16:42:47.603Z,10.15
2024-03-13T16:45:19.721Z,10.09
2024-03-13T16:47:48.720Z,9.93
2024-03-13T16:50:17.654Z,9.76
2024-03-13T16:52:45.910Z,9.58
2024-03-13T16:55:14.202Z,9.47
2024-03-13T16:57:44.096Z,9.38
2024-03-13T17:00:17.127Z,9.25
2024-03-13T17:02:48.358Z,9.15
2024-03-13T17:05:17.918Z,9.05
2024-03-13T17:07:48.833Z,8.98
2024-03-13T17:10:20.386Z,8.91
2024-03-13T17:12:47.932Z,8.95
2024-03-13T17:15:16.003Z,8.92
2024-03-13T17:17:43.919Z,8.80
2024-03-13T17:20:11.805Z,8.80
2024-03-13T17:22:39.616Z,8.79
2024-03-13T17:25:07.541Z,8.64
2024-03-13T17:27:35.034Z,8.47
2024-03-13T17:30:03.148Z,8.30
2024-03-13T17:32:32.994Z,8.22
2024-03-13T17:35:02.084Z,8.14
2024-03-13T17:37:30.897Z,8.06
2024-03-13T17:39:59.056Z,7.95
2024-03-13T17:42:27.344Z,7.92
2024-03-13T17:44:58.209Z,7.94
2024-03-13T17:47:26.160Z,7.93
2024-03-13T17:49:54.200Z,7.85
2024-03-13T17:52:22.124Z,7.82
2024-03-13T17:54:53.693Z,7.47
2024-03-13T17:57:21.722Z,7.72
2024-03-13T17:59:49.779Z,7.66
2024-03-13T18:02:20.264Z,7.60
2024-03-13T18:04:48.148Z,7.57
2024-03-13T18:07:16.622Z,7.52
2024-03-13T18:09:44.371Z,7.51
2024-03-13T18:12:12.196Z,7.56
2024-03-13T18:14:39.873Z,7.67
2024-03-13T18:17:07.598Z,7.54
2024-03-13T18:19:35.660Z,7.41
2024-03-13T18:22:03.622Z,7.35
2024-03-13T18:24:31.248Z,7.41
2024-03-13T18:26:59.016Z,7.59
2024-03-13T18:29:26.574Z,7.64
2024-03-13T18:31:54.695Z,7.55
2024-03-13T18:34:22.419Z,7.43
2024-03-13T18:36:50.575Z,7.34
2024-03-13T18:39:19.705Z,7.17
2024-03-13T18:41:47.687Z,7.18
2024-03-13T18:44:15.463Z,7.12
2024-03-13T18:46:43.249Z,7.10
2024-03-13T18:49:12.177Z,7.06
2024-03-13T18:51:39.824Z,7.04
2024-03-13T18:54:07.761Z,7.05
2024-03-13T18:56:36.918Z,7.06
2024-03-13T18:59:05.912Z,7.01
2024-03-13T19:01:34.577Z,6.97
2024-03-13T19:04:02.345Z,6.92
2024-03-13T19:06:29.990Z,6.87
2024-03-13T19:08:57.783Z,6.84
2024-03-13T19:11:26.029Z,6.90
2024-03-13T19:13:54.783Z,6.87
2024-03-13T19:16:22.177Z,6.76
2024-03-13T19:18:53.586Z,6.61
2024-03-13T19:21:25.163Z,6.51
2024-03-13T19:23:54.044Z,6.45
2024-03-13T19:26:23.484Z,6.45
2024-03-13T19:28:53.934Z,6.47
2024-03-13T19:31:27.143Z,6.67
2024-03-13T19:34:02.176Z,6.67
2024-03-13T19:36:29.809Z,6.53
2024-03-13T19:38:59.433Z,6.47
2024-03-13T19:41:27.316Z,6.56
2024-03-13T19:43:55.790Z,6.42
2024-03-13T19:46:23.385Z,6.28
2024-03-13T19:48:51.011Z,6.20
2024-03-13T19:51:18.605Z,6.12
2024-03-13T19:53:46.199Z,6.04
2024-03-13T19:56:14.510Z,6.06
2024-03-13T19:58:41.830Z,6.18
2024-03-13T20:01:09.525Z,6.23
2024-03-13T20:03:38.644Z,6.22
2024-03-13T20:06:06.656Z,6.25
2024-03-13T20:08:36.417Z,6.26
2024-03-13T20:11:07.040Z,6.28
2024-03-13T20:13:35.082Z,6.33
2024-03-13T20:16:03.683Z,6.33
2024-03-13T20:18:31.270Z,6.23
2024-03-13T20:21:00.246Z,6.12
2024-03-13T20:23:28.359Z,6.06
2024-03-13T20:25:55.921Z,6.08
2024-03-13T20:28:23.466Z,6.24
2024-03-13T20:30:51.061Z,6.24
2024-03-13T20:33:19.584Z,6.27
2024-03-13T20:35:51.223Z,6.32
2024-03-13T20:38:18.942Z,6.35
2024-03-13T20:40:46.449Z,6.28
2024-03-13T20:43:13.882Z,6.31
2024-03-13T20:45:41.478Z,6.30
2024-03-13T20:48:11.697Z,6.33
2024-03-13T20:50:39.354Z,6.33
2024-03-13T20:53:07.449Z,6.25
2024-03-13T20:55:35.031Z,6.23
2024-03-13T20:58:02.786Z,6.26
2024-03-13T21:00:32.023Z,6.31
2024-03-13T21:02:59.904Z,6.29
2024-03-13T21:05:30.094Z,6.26
2024-03-13T21:07:59.901Z,6.24
2024-03-13T21:10:27.641Z,6.23
2024-03-13T21:12:55.934Z,6.23
2024-03-13T21:15:24.607Z,6.20
2024-03-13T21:17:52.049Z,6.18
2024-03-13T21:20:21.336Z,6.14
2024-03-13T21:22:48.894Z,6.09
2024-03-13T21:25:16.645Z,6.09
2024-03-13T21:27:45.732Z,6.04
2024-03-13T21:30:16.514Z,5.97
2024-03-13T21:32:44.467Z,5.93
2024-03-13T21:35:19.389Z,5.93
2024-03-13T21:37:48.420Z,5.89
2024-03-13T21:40:19.176Z,5.84
2024-03-13T21:42:47.187Z,5.77
2024-03-13T21:45:15.212Z,5.65
2024-03-13T21:47:46.223Z,5.54
2024-03-13T21:50:15.769Z,5.57
2024-03-13T21:52:43.521Z,5.49
2024-03-13T21:55:11.300Z,5.48
2024-03-13T21:57:43.797Z,5.47
2024-03-13T22:00:12.137Z,5.40
2024-03-13T22:02:40.002Z,5.42
2024-03-13T22:05:08.359Z,5.38
2024-03-13T22:07:35.911Z,5.30
2024-03-13T22:10:05.134Z,5.28
2024-03-13T22:12:33.280Z,5.30
2024-03-13T22:15:06.747Z,5.28
2024-03-13T22:17:34.714Z,5.27
2024-03-13T22:20:02.501Z,5.28
2024-03-13T22:22:31.713Z,5.23
2024-03-13T22:24:59.276Z,5.23
2024-03-13T22:27:27.189Z,5.16
2024-03-13T22:29:55.411Z,5.09
2024-03-13T22:32:23.252Z,5.08
2024-03-13T22:34:50.971Z,5.09
2024-03-13T22:37:18.808Z,5.10
2024-03-13T22:39:46.429Z,5.07
2024-03-13T22:42:14.096Z,5.06
2024-03-13T22:44:41.832Z,5.03
2024-03-13T22:47:09.577Z,4.98
2024-03-13T22:49:37.462Z,4.96
2024-03-13T22:52:05.430Z,4.98
2024-03-13T22:54:34.188Z,4.99
2024-03-13T22:57:01.960Z,4.97
2024-03-13T22:59:30.064Z,4.97
2024-03-13T23:01:58.657Z,5.01
2024-03-13T23:04:26.352Z,5.01
2024-03-13T23:06:53.870Z,4.99
2024-03-13T23:09:21.582Z,5.00
2024-03-13T23:11:51.982Z,5.01
2024-03-13T23:14:21.046Z,4.94
2024-03-13T23:16:48.666Z,5.03
2024-03-13T23:19:16.434Z,5.06
2024-03-13T23:21:44.292Z,5.07
2024-03-13T23:24:12.035Z,5.03
2024-03-13T23:26:42.094Z,5.02
2024-03-13T23:29:10.047Z,5.01
2024-03-13T23:31:43.241Z,5.03
2024-03-13T23:34:14.825Z,5.05
2024-03-13T23:36:43.641Z,5.08
2024-03-13T23:39:12.010Z,5.08
2024-03-13T23:41:42.326Z,5.05
2024-03-13T23:44:10.573Z,5.05
2024-03-13T23:46:39.904Z,4.98
2024-03-13T23:49:08.399Z,4.83
2024-03-13T23:51:38.793Z,4.84
2024-03-13T23:54:07.370Z,4.74
2024-03-13T23:56:35.071Z,4.84
2024-03-13T23:59:04.526Z,4.86
